Time;durP1;ratioP1;P1;durP2;ratioP2;P2;SDS_P1;SDS_P2;PMS_P1;PMS_P2;Temp;Humidity;BMP_temperature;BMP_pressure;BME280_temperature;BME280_humidity;BME280_pressure;Samples;Min_cycle;Max_cycle;Signal;HPM_P1;HPM_P2
2022/03/11 00:00:08;;;;;;;10.73;5.30;;;;;;;-7.73;100.00;101497.89;1683729;85;20999;-61
2022/03/11 00:02:38;;;;;;;9.93;4.80;;;;;;;-7.64;100.00;101485.83;1683371;84;21015;-60
2022/03/11 00:05:06;;;;;;;11.17;5.33;;;;;;;-7.68;100.00;101485.22;1683892;84;21524;-60
2022/03/11 00:07:33;;;;;;;10.93;5.43;;;;;;;-7.74;100.00;101484.55;1684001;85;21003;-60
2022/03/11 00:10:00;;;;;;;11.47;5.37;;;;;;;-7.70;100.00;101483.05;1683734;85;21539;-60
2022/03/11 00:12:27;;;;;;;12.27;5.67;;;;;;;-7.74;100.00;101476.19;1683653;85;20999;-61
2022/03/11 00:14:55;;;;;;;9.80;5.20;;;;;;;-7.70;100.00;101480.14;1683659;85;21039;-60
2022/03/11 00:17:23;;;;;;;8.80;4.90;;;;;;;-7.69;100.00;101467.24;1683698;85;21090;-60
2022/03/11 00:19:49;;;;;;;12.10;5.07;;;;;;;-7.78;100.00;101473.94;1683825;85;21050;-60
2022/03/11 00:22:18;;;;;;;10.37;5.23;;;;;;;-7.68;100.00;101472.72;1683682;85;21079;-60
2022/03/11 00:24:45;;;;;;;9.87;5.10;;;;;;;-7.68;100.00;101467.72;1684003;85;21008;-60
2022/03/11 00:27:11;;;;;;;10.97;5.07;;;;;;;-7.64;100.00;101469.58;1683909;84;21050;-60
2022/03/11 00:29:38;;;;;;;12.57;5.03;;;;;;;-7.61;100.00;101460.95;1683927;84;21230;-60
2022/03/11 00:32:07;;;;;;;11.93;5.13;;;;;;;-7.61;100.00;101457.20;1683824;84;21031;-60
2022/03/11 00:34:34;;;;;;;9.00;4.83;;;;;;;-7.57;100.00;101456.95;1684474;85;21007;-60
2022/03/11 00:37:03;;;;;;;9.13;4.70;;;;;;;-7.61;100.00;101463.45;1683863;84;21031;-60
2022/03/11 00:39:30;;;;;;;8.63;4.53;;;;;;;-7.61;100.00;101458.84;1683701;84;21036;-60
2022/03/11 00:41:57;;;;;;;10.77;4.73;;;;;;;-7.52;100.00;101452.98;1683895;85;21008;-60
2022/03/11 00:44:23;;;;;;;10.60;5.03;;;;;;;-7.48;100.00;101449.84;1683641;85;21075;-60
2022/03/11 00:46:50;;;;;;;10.97;5.27;;;;;;;-7.50;100.00;101442.66;1683913;85;21067;-61
2022/03/11 00:49:17;;;;;;;10.43;5.33;;;;;;;-7.49;100.00;101451.48;1683965;85;21019;-60
2022/03/11 00:51:43;;;;;;;9.73;4.93;;;;;;;-7.49;100.00;101449.39;1683835;85;21114;-60
2022/03/11 00:54:10;;;;;;;10.27;5.40;;;;;;;-7.49;100.00;101450.64;1683684;85;21491;-60
2022/03/11 00:56:37;;;;;;;13.30;5.33;;;;;;;-7.51;100.00;101453.47;1683641;85;21066;-60
2022/03/11 00:59:04;;;;;;;9.80;5.43;;;;;;;-7.54;100.00;101449.56;1683966;84;21492;-60
2022/03/11 01:01:32;;;;;;;11.07;5.03;;;;;;;-7.53;100.00;101442.14;1683700;84;21039;-60
2022/03/11 01:03:58;;;;;;;9.63;5.00;;;;;;;-7.51;100.00;101438.47;1683772;84;21043;-60
2022/03/11 01:06:25;;;;;;;10.97;5.47;;;;;;;-7.49;100.00;101435.64;1683612;84;21015;-60
2022/03/11 01:08:51;;;;;;;12.40;5.33;;;;;;;-7.43;100.00;101442.56;1683777;85;21078;-60
2022/03/11 01:11:18;;;;;;;10.60;5.47;;;;;;;-7.47;100.00;101443.66;1683878;84;21053;-61
2022/03/11 01:13:47;;;;;;;8.77;4.97;;;;;;;-7.52;100.00;101451.38;1683609;85;21044;-60
2022/03/11 01:16:14;;;;;;;10.80;5.77;;;;;;;-7.50;100.00;101444.79;1684019;85;21106;-60
2022/03/11 01:18:41;;;;;;;9.43;4.83;;;;;;;-7.53;100.00;101447.55;1683608;85;21038;-60
2022/03/11 01:21:10;;;;;;;9.67;5.37;;;;;;;-7.56;100.00;101446.14;1683870;85;21126;-61
2022/03/11 01:23:39;;;;;;;12.43;5.63;;;;;;;-7.57;100.00;101447.79;1683799;85;21055;-60
2022/03/11 01:26:10;;;;;;;9.97;4.90;;;;;;;-7.55;100.00;101450.37;1684682;85;21015;-60
2022/03/11 01:28:41;;;;;;;9.23;5.07;;;;;;;-7.57;100.00;101444.04;1692101;85;21066;-61
2022/03/11 01:31:11;;;;;;;12.47;5.00;;;;;;;-7.53;100.00;101445.89;1692180;84;20991;-60
2022/03/11 01:33:43;;;;;;;13.13;5.40;;;;;;;-7.48;100.00;101444.84;1692186;85;21057;-60
2022/03/11 01:36:11;;;;;;;10.87;5.40;;;;;;;-7.55;100.00;101442.87;1692302;85;21034;-61
2022/03/11 01:38:40;;;;;;;10.93;5.20;;;;;;;-7.55;100.00;101441.22;1692323;84;21078;-62
2022/03/11 01:41:09;;;;;;;13.33;5.63;;;;;;;-7.61;100.00;101450.94;1691957;85;21078;-62
2022/03/11 01:44:01;;;;;;;9.37;4.67;;;;;;;-7.60;100.00;101441.42;1692276;84;21121;-62
2022/03/11 01:46:30;;;;;;;11.00;4.60;;;;;;;-7.61;100.00;101447.20;1692179;85;21041;-61
2022/03/11 01:48:59;;;;;;;12.73;5.57;;;;;;;-7.52;100.00;101447.98;1692272;85;21041;-61
2022/03/11 01:51:29;;;;;;;14.57;5.53;;;;;;;-7.58;100.00;101450.22;1692081;84;21034;-60
2022/03/11 01:53:57;;;;;;;11.23;5.20;;;;;;;-7.55;100.00;101455.38;1692173;84;21062;-60
2022/03/11 01:56:26;;;;;;;11.50;5.43;;;;;;;-7.55;100.00;101451.22;1692186;85;21026;-61
2022/03/11 01:58:56;;;;;;;12.67;6.00;;;;;;;-7.61;100.00;101452.19;1691878;85;21090;-60
2022/03/11 02:01:25;;;;;;;9.10;5.17;;;;;;;-7.58;100.00;101445.22;1692186;84;21002;-61
2022/03/11 02:03:53;;;;;;;10.87;5.30;;;;;;;-7.60;100.00;101453.92;1692243;85;21034;-59
2022/03/11 02:06:20;;;;;;;9.63;5.20;;;;;;;-7.51;100.00;101448.47;1692230;84;21069;-60
2022/03/11 02:08:48;;;;;;;10.73;5.47;;;;;;;-7.57;100.00;101450.30;1691945;84;21043;-60
2022/03/11 02:11:15;;;;;;;9.57;5.50;;;;;;;-7.53;100.00;101451.30;1674318;85;21078;-60
2022/03/11 02:13:51;;;;;;;10.17;5.27;;;;;;;-7.47;100.00;101453.66;1692148;83;21042;-61
2022/03/11 02:16:28;;;;;;;12.80;6.70;;;;;;;-7.51;100.00;101454.72;1692193;85;21062;-61
2022/03/11 02:18:57;;;;;;;11.93;6.07;;;;;;;-7.46;100.00;101450.39;1692313;85;21042;-60
2022/03/11 02:21:27;;;;;;;11.70;5.77;;;;;;;-7.42;100.00;101457.64;1692603;83;21023;-60
2022/03/11 02:23:59;;;;;;;13.23;5.93;;;;;;;-7.43;100.00;101446.31;1692118;84;21097;-60
2022/03/11 02:26:28;;;;;;;14.43;5.90;;;;;;;-7.43;100.00;101453.81;1691148;84;21043;-60
2022/03/11 02:28:59;;;;;;;11.90;6.20;;;;;;;-7.42;100.00;101443.89;1683759;85;21019;-60
2022/03/11 02:31:29;;;;;;;15.37;5.57;;;;;;;-7.42;100.00;101451.39;1683670;85;21054;-60
2022/03/11 02:33:59;;;;;;;14.37;6.13;;;;;;;-7.41;100.00;101450.98;1683893;84;21011;-61
2022/03/11 02:36:27;;;;;;;13.30;5.77;;;;;;;-7.37;100.00;101459.09;1683783;85;21059;-60
2022/03/11 02:38:54;;;;;;;11.63;5.80;;;;;;;-7.34;100.00;101456.33;1683668;84;21026;-61
2022/03/11 02:41:24;;;;;;;12.70;5.90;;;;;;;-7.36;100.00;101459.16;1683951;85;21011;-61
2022/03/11 02:43:52;;;;;;;10.70;5.33;;;;;;;-7.33;100.00;101456.78;1683530;85;21043;-60
2022/03/11 02:46:19;;;;;;;12.87;5.93;;;;;;;-7.37;100.00;101462.84;1684001;85;21531;-60
2022/03/11 02:48:46;;;;;;;15.07;6.43;;;;;;;-7.33;100.00;101465.53;1683728;84;21019;-60
2022/03/11 02:51:12;;;;;;;12.10;5.87;;;;;;;-7.35;100.00;101460.01;1671174;85;21551;-60
2022/03/11 02:53:42;;;;;;;10.73;5.70;;;;;;;-7.27;100.00;101461.20;1671025;85;21073;-60
2022/03/11 02:56:10;;;;;;;9.93;5.47;;;;;;;-7.27;100.00;101468.70;1683466;85;21015;-59
2022/03/11 02:58:40;;;;;;;11.87;6.00;;;;;;;-7.28;100.00;101465.36;1683799;84;21034;-60
2022/03/11 03:01:08;;;;;;;14.63;6.20;;;;;;;-7.25;100.00;101465.88;1683869;84;21015;-60
2022/03/11 03:03:36;;;;;;;11.93;6.00;;;;;;;-7.28;100.00;101462.85;1683719;85;21015;-60
2022/03/11 03:06:04;;;;;;;15.33;6.13;;;;;;;-7.26;100.00;101465.03;1683701;85;21559;-60
2022/03/11 03:08:32;;;;;;;12.17;5.90;;;;;;;-7.27;100.00;101468.30;1683889;85;21064;-60
2022/03/11 03:11:00;;;;;;;14.70;5.37;;;;;;;-7.22;100.00;101464.74;1683537;85;21555;-60
2022/03/11 03:13:27;;;;;;;9.70;5.40;;;;;;;-7.27;100.00;101463.30;1683718;85;21048;-60
2022/03/11 03:15:56;;;;;;;10.13;5.33;;;;;;;-7.32;100.00;101471.38;1683887;85;21497;-60
2022/03/11 03:18:25;;;;;;;10.73;5.70;;;;;;;-7.29;100.00;101471.13;1683747;85;21039;-60
2022/03/11 03:20:51;;;;;;;12.87;5.97;;;;;;;-7.27;100.00;101468.70;1683997;85;21043;-60
2022/03/11 03:23:20;;;;;;;12.20;5.53;;;;;;;-7.25;100.00;101466.72;1683636;85;21012;-60
2022/03/11 03:25:47;;;;;;;14.00;5.63;;;;;;;-7.26;100.00;101470.03;1683929;84;21011;-60
2022/03/11 03:28:14;;;;;;;15.80;5.70;;;;;;;-7.27;100.00;101476.20;1690090;83;21594;-60
2022/03/11 03:30:42;;;;;;;15.40;5.80;;;;;;;-7.21;100.00;101471.88;1692529;84;21067;-61
2022/03/11 03:33:09;;;;;;;12.47;6.63;;;;;;;-7.23;100.00;101468.05;1692919;84;21066;-60
2022/03/11 03:35:36;;;;;;;13.30;6.10;;;;;;;-7.23;100.00;101481.81;1692546;85;21054;-61
2022/03/11 03:38:04;;;;;;;13.33;5.43;;;;;;;-7.23;100.00;101476.80;1692954;83;21070;-59
2022/03/11 03:40:30;;;;;;;12.90;6.80;;;;;;;-7.30;100.00;101473.55;1692617;83;21087;-60
2022/03/11 03:42:58;;;;;;;12.50;6.23;;;;;;;-7.28;100.00;101484.48;1692511;83;21003;-60
2022/03/11 03:45:26;;;;;;;13.50;6.23;;;;;;;-7.26;100.00;101477.91;1692477;84;21117;-60
2022/03/11 03:47:52;;;;;;;11.63;5.80;;;;;;;-7.28;100.00;101479.48;1692652;85;21011;-60
2022/03/11 03:50:19;;;;;;;12.27;6.00;;;;;;;-7.31;100.00;101483.97;1692826;85;21039;-60
2022/03/11 03:52:46;;;;;;;12.73;5.93;;;;;;;-7.29;100.00;101493.64;1692557;85;21159;-59
2022/03/11 03:55:13;;;;;;;12.83;5.97;;;;;;;-7.26;100.00;101492.55;1692837;83;21131;-59
2022/03/11 03:57:40;;;;;;;14.37;5.50;;;;;;;-7.25;100.00;101490.48;1692478;85;21535;-60
2022/03/11 04:00:09;;;;;;;14.03;5.70;;;;;;;-7.33;100.00;101497.20;1692576;83;21031;-60
2022/03/11 04:02:51;;;;;;;10.97;5.30;;;;;;;-7.25;100.00;101495.49;1692607;84;21031;-60
2022/03/11 04:05:20;;;;;;;13.37;5.67;;;;;;;-7.23;100.00;101509.33;1692813;85;21031;-61
2022/03/11 04:07:49;;;;;;;11.37;5.07;;;;;;;-7.33;100.00;101499.70;1692744;85;21518;-62
2022/03/11 04:10:23;;;;;;;11.33;5.53;;;;;;;-7.36;100.00;101507.05;1692909;84;20979;-61
2022/03/11 04:12:47;;;;;;;11.33;5.70;;;;;;;-7.34;100.00;101525.48;1691700;84;21043;-61
2022/03/11 04:15:14;;;;;;;11.37;5.80;;;;;;;-7.36;100.00;101506.69;1692539;84;21090;-60
2022/03/11 04:17:41;;;;;;;11.00;5.67;;;;;;;-7.32;100.00;101511.41;1692978;84;21499;-61
2022/03/11 04:20:10;;;;;;;13.33;5.67;;;;;;;-7.30;100.00;101509.83;1692629;84;21096;-61
2022/03/11 04:22:45;;;;;;;12.07;6.00;;;;;;;-7.35;100.00;101518.79;1692972;85;21542;-61
2022/03/11 04:25:14;;;;;;;12.10;5.60;;;;;;;-7.25;100.00;101516.76;1692633;84;21074;-61
2022/03/11 04:27:41;;;;;;;12.57;6.00;;;;;;;-7.19;100.00;101514.92;1692804;85;20991;-61
2022/03/11 04:30:09;;;;;;;10.90;5.33;;;;;;;-7.13;100.00;101515.20;1692493;83;21034;-59
2022/03/11 04:32:37;;;;;;;13.70;6.63;;;;;;;-7.09;100.00;101525.80;1692817;83;21015;-58
2022/03/11 04:35:07;;;;;;;13.20;5.83;;;;;;;-7.09;100.00;101524.55;1692651;83;21039;-58
2022/03/11 04:37:34;;;;;;;12.37;6.37;;;;;;;-7.02;100.00;101523.57;1692836;83;21086;-58
2022/03/11 04:40:01;;;;;;;13.07;5.57;;;;;;;-7.01;100.00;101529.90;1692691;84;21143;-59
2022/03/11 04:42:27;;;;;;;12.97;6.30;;;;;;;-7.01;100.00;101546.54;1672904;85;21027;-58
2022/03/11 04:44:56;;;;;;;15.07;6.30;;;;;;;-6.99;100.00;101523.72;1692476;85;21554;-58
2022/03/11 04:47:23;;;;;;;13.87;5.80;;;;;;;-7.02;100.00;101526.07;1692619;84;21090;-58
2022/03/11 04:49:52;;;;;;;12.63;6.00;;;;;;;-7.03;100.00;101536.86;1692832;84;21058;-58
2022/03/11 04:52:19;;;;;;;11.13;5.23;;;;;;;-7.06;100.00;101534.68;1693049;83;21538;-59
2022/03/11 04:54:47;;;;;;;11.67;5.93;;;;;;;-7.01;100.00;101539.91;1692613;83;21039;-59
2022/03/11 04:57:13;;;;;;;12.87;5.80;;;;;;;-6.97;100.00;101538.00;1692810;85;20999;-59
2022/03/11 04:59:41;;;;;;;15.57;6.33;;;;;;;-6.82;100.00;101540.30;1692540;84;21043;-58
2022/03/11 05:02:08;;;;;;;13.97;5.70;;;;;;;-6.78;100.00;101544.66;1692672;83;21043;-59
2022/03/11 05:04:34;;;;;;;13.10;5.87;;;;;;;-6.83;100.00;101534.86;1692478;83;21550;-58
2022/03/11 05:07:06;;;;;;;14.67;5.67;;;;;;;-6.73;100.00;101553.23;1692803;85;21094;-59
2022/03/11 05:09:32;;;;;;;14.23;6.20;;;;;;;-6.67;100.00;101551.36;1692950;84;21015;-61
2022/03/11 05:11:59;;;;;;;15.87;5.73;;;;;;;-6.75;100.00;101547.67;1692618;85;21571;-60
2022/03/11 05:14:26;;;;;;;13.43;6.20;;;;;;;-6.70;100.00;101555.01;1692574;85;21102;-60
2022/03/11 05:16:53;;;;;;;12.60;5.80;;;;;;;-6.68;100.00;101560.94;1692686;83;21531;-59
2022/03/11 05:19:21;;;;;;;12.37;6.37;;;;;;;-6.63;100.00;101562.37;1672843;85;21031;-60
2022/03/11 05:21:49;;;;;;;15.80;6.20;;;;;;;-6.61;100.00;101562.89;1692338;85;21055;-59
2022/03/11 05:24:16;;;;;;;14.37;6.33;;;;;;;-6.46;100.00;101569.82;1692502;84;21098;-60
2022/03/11 05:26:43;;;;;;;11.73;5.80;;;;;;;-6.42;100.00;101575.83;1692846;83;20982;-61
2022/03/11 05:29:10;;;;;;;12.73;5.43;;;;;;;-6.54;100.00;101579.91;1691973;85;21007;-60
2022/03/11 05:31:38;;;;;;;12.70;6.20;;;;;;;-6.56;100.00;101572.73;1692368;84;21031;-60
2022/03/11 05:34:05;;;;;;;12.73;6.07;;;;;;;-6.60;100.00;101576.30;1691960;84;21542;-60
2022/03/11 05:36:32;;;;;;;13.97;6.43;;;;;;;-6.49;100.00;101588.49;1692311;85;21007;-60
2022/03/11 05:38:59;;;;;;;16.20;5.97;;;;;;;-6.59;100.00;101585.10;1692006;84;21137;-60
2022/03/11 05:41:27;;;;;;;14.70;6.20;;;;;;;-6.40;100.00;101576.75;1692307;85;21011;-60
2022/03/11 05:43:54;;;;;;;14.33;6.40;;;;;;;-6.14;100.00;101583.22;1692189;84;21067;-60
2022/03/11 05:46:22;;;;;;;13.03;6.47;;;;;;;-6.31;100.00;101588.39;1691933;85;21060;-60
2022/03/11 05:48:49;;;;;;;15.97;6.53;;;;;;;-6.37;100.00;101592.30;1692309;85;20975;-60
2022/03/11 05:51:17;;;;;;;13.90;6.20;;;;;;;-6.39;100.00;101592.63;1692040;84;21099;-61
2022/03/11 05:53:44;;;;;;;15.57;6.60;;;;;;;-6.43;100.00;101594.14;1692024;84;21039;-60
2022/03/11 05:56:10;;;;;;;15.50;6.70;;;;;;;-6.38;100.00;101596.86;1692229;84;21014;-60
2022/03/11 05:58:38;;;;;;;14.70;6.47;;;;;;;-6.34;100.00;101597.45;1692061;85;21098;-59
2022/03/11 06:01:06;;;;;;;15.50;6.53;;;;;;;-6.17;100.00;101605.66;1692258;85;21051;-60
2022/03/11 06:03:33;;;;;;;17.13;6.67;;;;;;;-6.14;100.00;101600.39;1691990;85;21571;-60
2022/03/11 06:06:00;;;;;;;14.83;6.97;;;;;;;-5.96;100.00;101601.92;1701377;83;21003;-59
2022/03/11 06:08:29;;;;;;;15.07;7.37;;;;;;;-6.15;100.00;101611.59;1708284;83;21043;-62
2022/03/11 06:10:56;;;;;;;13.93;6.70;;;;;;;-6.30;100.00;101617.68;1705589;83;21135;-61
2022/03/11 06:13:23;;;;;;;14.23;7.00;;;;;;;-6.15;100.00;101604.08;1709355;83;21015;-60
2022/03/11 06:15:50;;;;;;;14.10;7.17;;;;;;;-6.17;100.00;101619.45;1707881;83;21027;-60
2022/03/11 06:18:18;;;;;;;12.73;6.50;;;;;;;-6.02;100.00;101612.58;1707999;83;21451;-60
2022/03/11 06:20:45;;;;;;;14.43;7.40;;;;;;;-5.97;100.00;101612.76;1707973;83;21207;-61
2022/03/11 06:23:13;;;;;;;14.13;6.67;;;;;;;-6.06;100.00;101617.00;1709195;83;20999;-60
2022/03/11 06:25:40;;;;;;;16.47;7.50;;;;;;;-6.14;100.00;101607.03;1705620;83;21082;-61
2022/03/11 06:28:07;;;;;;;16.27;7.20;;;;;;;-6.14;100.00;101623.31;1707114;83;21027;-60
2022/03/11 06:30:35;;;;;;;17.70;6.83;;;;;;;-6.19;100.00;101611.01;1695934;83;21030;-60
2022/03/11 06:33:02;;;;;;;14.27;6.50;;;;;;;-6.10;100.00;101610.16;1692167;84;21053;-60
2022/03/11 06:35:29;;;;;;;15.93;7.00;;;;;;;-6.13;100.00;101610.01;1692144;84;21086;-61
2022/03/11 06:37:55;;;;;;;14.83;7.20;;;;;;;-6.25;100.00;101611.60;1692018;84;21054;-61
2022/03/11 06:40:22;;;;;;;13.60;6.70;;;;;;;-6.26;100.00;101606.99;1692204;84;21006;-61
2022/03/11 06:42:51;;;;;;;13.30;6.70;;;;;;;-6.21;100.00;101606.33;1704194;83;21439;-61
2022/03/11 06:45:19;;;;;;;12.20;6.20;;;;;;;-6.03;100.00;101603.33;1700820;83;20999;-61
2022/03/11 06:47:47;;;;;;;13.20;7.00;;;;;;;-5.89;100.00;101605.97;1706353;83;20991;-61
2022/03/11 06:50:16;;;;;;;14.67;6.43;;;;;;;-5.93;100.00;101617.08;1689978;83;21011;-61
2022/03/11 06:52:44;;;;;;;16.37;6.17;;;;;;;-5.85;100.00;101606.95;1707616;83;20998;-61
2022/03/11 06:55:13;;;;;;;17.37;7.00;;;;;;;-5.90;100.00;101600.52;1708067;83;21023;-61
2022/03/11 06:57:40;;;;;;;14.67;6.87;;;;;;;-5.75;100.00;101604.42;1705954;83;21474;-60
2022/03/11 07:00:09;;;;;;;14.83;7.00;;;;;;;-5.80;100.00;101612.14;1707439;83;20987;-63
2022/03/11 07:02:39;;;;;;;14.90;6.80;;;;;;;-5.77;100.00;101614.80;1704122;83;21459;-60
2022/03/11 07:05:07;;;;;;;14.83;7.23;;;;;;;-5.62;100.00;101613.29;1720068;83;21007;-61
2022/03/11 07:07:34;;;;;;;12.53;6.60;;;;;;;-5.44;100.00;101609.84;1721670;82;21046;-59
2022/03/11 07:10:06;;;;;;;14.53;6.87;;;;;;;-5.59;100.00;101624.30;1720769;83;21011;-60
2022/03/11 07:12:33;;;;;;;13.30;6.60;;;;;;;-5.41;100.00;101612.89;1721138;83;21099;-60
2022/03/11 07:15:04;;;;;;;14.00;7.07;;;;;;;-5.22;100.00;101614.84;1703140;83;21022;-61
2022/03/11 07:17:31;;;;;;;15.97;7.00;;;;;;;-5.04;100.00;101616.38;1721120;82;21078;-60
2022/03/11 07:19:59;;;;;;;15.53;7.27;;;;;;;-4.80;100.00;101614.33;1702725;83;21002;-61
2022/03/11 07:22:27;;;;;;;16.57;8.30;;;;;;;-4.53;100.00;101614.86;1720898;83;21618;-60
2022/03/11 07:24:54;;;;;;;13.67;6.43;;;;;;;-4.43;100.00;101614.38;1716253;83;20999;-61
2022/03/11 07:27:22;;;;;;;14.67;7.07;;;;;;;-4.71;100.00;101620.92;1705386;83;20992;-61
2022/03/11 07:29:50;;;;;;;16.87;7.27;;;;;;;-4.96;100.00;101624.20;1704894;83;21016;-60
2022/03/11 07:32:17;;;;;;;12.03;6.27;;;;;;;-5.23;100.00;101620.27;1712133;84;21083;-60
2022/03/11 07:34:44;;;;;;;15.47;7.13;;;;;;;-5.13;100.00;101609.78;1712240;83;21566;-59
2022/03/11 07:37:12;;;;;;;14.30;7.00;;;;;;;-4.96;100.00;101622.11;1712347;84;21004;-61
2022/03/11 07:39:42;;;;;;;13.10;6.80;;;;;;;-5.13;100.00;101618.56;1712336;83;21086;-59
2022/03/11 07:42:09;;;;;;;16.37;7.10;;;;;;;-5.20;100.00;101617.86;1708222;83;21468;-61
2022/03/11 07:44:40;;;;;;;15.30;6.50;;;;;;;-5.08;100.00;101618.73;1712220;83;21524;-60
2022/03/11 07:47:07;;;;;;;14.77;6.83;;;;;;;-4.89;100.00;101619.00;1712277;83;21016;-61
2022/03/11 07:49:34;;;;;;;12.43;6.53;;;;;;;-4.65;100.00;101614.87;1697245;84;21011;-59
2022/03/11 07:52:02;;;;;;;12.57;6.57;;;;;;;-4.44;100.00;101623.97;1699342;84;21020;-60
2022/03/11 07:54:29;;;;;;;13.77;6.73;;;;;;;-4.49;100.00;101627.98;1697828;84;21027;-59
2022/03/11 07:56:58;;;;;;;15.17;7.03;;;;;;;-4.54;100.00;101626.58;1696512;84;21062;-60
2022/03/11 07:59:28;;;;;;;14.83;7.07;;;;;;;-4.57;100.00;101635.66;1698723;83;21039;-60
2022/03/11 08:01:53;;;;;;;13.13;7.20;;;;;;;-4.70;100.00;101633.96;1698670;84;20975;-60
2022/03/11 08:04:19;;;;;;;14.07;6.50;;;;;;;-4.90;100.00;101631.13;1712481;83;21055;-60
2022/03/11 08:06:48;;;;;;;17.47;6.93;;;;;;;-4.53;100.00;101633.71;1712462;84;21063;-60
2022/03/11 08:09:15;;;;;;;14.63;6.93;;;;;;;-4.39;100.00;101630.02;1712342;83;21000;-59
2022/03/11 08:11:42;;;;;;;17.57;6.90;;;;;;;-3.98;100.00;101627.22;1712429;83;21027;-59
2022/03/11 08:14:08;;;;;;;17.87;8.53;;;;;;;-3.66;100.00;101629.12;1712421;84;21558;-60
2022/03/11 08:16:35;;;;;;;16.67;7.23;;;;;;;-3.53;100.00;101631.61;1712140;83;21468;-60
2022/03/11 08:19:02;;;;;;;15.97;7.20;;;;;;;-3.86;100.00;101625.11;1712391;84;21030;-59
2022/03/11 08:21:29;;;;;;;17.10;7.37;;;;;;;-3.78;100.00;101635.42;1712240;83;21067;-59
2022/03/11 08:23:56;;;;;;;15.77;6.87;;;;;;;-3.97;100.00;101633.56;1698293;84;21023;-60
2022/03/11 08:26:23;;;;;;;13.27;7.10;;;;;;;-4.06;100.00;101640.78;1711214;84;21090;-60
2022/03/11 08:28:50;;;;;;;15.93;7.20;;;;;;;-4.19;100.00;101634.48;1706512;83;21011;-60
2022/03/11 08:31:18;;;;;;;14.20;7.67;;;;;;;-4.08;100.00;101648.67;1699510;84;21023;-59
2022/03/11 08:33:45;;;;;;;14.83;7.23;;;;;;;-4.21;100.00;101632.33;1698867;84;21020;-60
2022/03/11 08:36:12;;;;;;;12.27;6.73;;;;;;;-4.32;100.00;101640.77;1697860;83;20956;-59
2022/03/11 08:38:40;;;;;;;14.10;7.40;;;;;;;-4.45;100.00;101638.61;1687842;84;21047;-60
2022/03/11 08:41:08;;;;;;;13.80;7.17;;;;;;;-4.38;100.00;101638.00;1696267;84;21086;-59
2022/03/11 08:43:38;;;;;;;15.73;7.37;;;;;;;-4.57;100.00;101637.77;1707614;84;21539;-60
2022/03/11 08:46:07;;;;;;;15.37;7.37;;;;;;;-4.63;100.00;101648.44;1712488;83;21106;-60
2022/03/11 08:48:34;;;;;;;13.80;6.90;;;;;;;-4.08;100.00;101643.65;1712298;84;21051;-60
2022/03/11 08:51:01;;;;;;;14.57;7.73;;;;;;;-4.12;100.00;101644.34;1712269;83;21035;-60
2022/03/11 08:53:28;;;;;;;13.70;7.33;;;;;;;-4.27;100.00;101645.53;1712280;84;21067;-59
2022/03/11 08:55:55;;;;;;;14.67;7.60;;;;;;;-4.09;100.00;101645.73;1712061;84;21500;-60
2022/03/11 08:58:23;;;;;;;14.80;7.57;;;;;;;-4.17;100.00;101647.13;1712060;84;20996;-60
2022/03/11 09:00:50;;;;;;;15.30;7.07;;;;;;;-4.17;100.00;101654.66;1712422;84;21031;-60
2022/03/11 09:03:18;;;;;;;14.13;7.57;;;;;;;-4.04;100.00;101651.75;1699376;84;21071;-59
2022/03/11 09:05:44;;;;;;;13.27;7.10;;;;;;;-3.86;100.00;101654.03;1712111;84;21059;-60
2022/03/11 09:08:11;;;;;;;16.03;7.50;;;;;;;-3.59;100.00;101655.73;1712391;83;20988;-60
2022/03/11 09:10:39;;;;;;;15.13;7.20;;;;;;;-3.60;100.00;101666.63;1700211;83;21011;-60
2022/03/11 09:13:06;;;;;;;13.43;7.60;;;;;;;-3.37;100.00;101657.28;1698531;84;21008;-60
2022/03/11 09:15:33;;;;;;;16.63;7.63;;;;;;;-3.24;100.00;101660.23;1696021;84;20974;-60
2022/03/11 09:18:00;;;;;;;13.13;7.33;;;;;;;-3.05;100.00;101656.60;1695592;84;20991;-60
2022/03/11 09:20:29;;;;;;;13.80;7.83;;;;;;;-2.73;100.00;101664.68;1699696;84;21007;-61
2022/03/11 09:22:56;;;;;;;14.60;7.27;;;;;;;-2.40;100.00;101667.70;1695495;84;20999;-59
2022/03/11 09:25:22;;;;;;;14.97;7.43;;;;;;;-2.40;98.49;101667.70;1698829;84;21039;-60
2022/03/11 09:27:49;;;;;;;13.93;6.90;;;;;;;-2.44;97.31;101683.14;1696572;83;20972;-60
2022/03/11 09:30:16;;;;;;;13.20;7.50;;;;;;;-2.74;96.35;101683.11;1681320;84;21114;-60
2022/03/11 09:32:43;;;;;;;14.87;7.73;;;;;;;-2.67;97.39;101673.27;1700387;84;20948;-60
2022/03/11 09:35:11;;;;;;;13.70;7.67;;;;;;;-2.56;99.02;101671.45;1703259;83;21024;-60
2022/03/11 09:37:38;;;;;;;17.97;8.00;;;;;;;-2.35;95.95;101672.06;1699400;84;20979;-60
2022/03/11 09:40:07;;;;;;;14.50;7.00;;;;;;;-2.64;93.24;101677.11;1697961;84;21534;-60
2022/03/11 09:42:36;;;;;;;13.83;7.30;;;;;;;-2.79;94.28;101674.17;1679140;84;20995;-60
2022/03/11 09:45:04;;;;;;;14.67;7.60;;;;;;;-2.62;96.26;101675.53;1689680;84;21591;-60
2022/03/11 09:47:33;;;;;;;16.47;7.80;;;;;;;-2.21;97.67;101671.16;1705797;84;20972;-59
2022/03/11 09:50:00;;;;;;;16.23;8.18;;;;;;;-2.15;96.69;101672.99;1702862;84;21019;-59
2022/03/11 09:52:27;;;;;;;13.73;7.80;;;;;;;-2.31;95.89;101691.52;1688694;84;21023;-60
2022/03/11 09:54:54;;;;;;;14.00;7.33;;;;;;;-2.55;94.97;101680.74;1711330;83;21067;-60
2022/03/11 09:57:23;;;;;;;14.73;7.63;;;;;;;-2.32;96.37;101667.50;1689445;83;21043;-59
2022/03/11 09:59:51;;;;;;;13.50;7.57;;;;;;;-2.37;95.50;101666.12;1699031;84;21012;-59
2022/03/11 10:02:18;;;;;;;15.50;8.20;;;;;;;-2.28;96.01;101669.30;1711875;83;20995;-61
2022/03/11 10:04:51;;;;;;;11.93;7.83;;;;;;;-2.27;95.54;101669.73;1713744;84;21039;-60
2022/03/11 10:07:26;;;;;;;15.40;7.83;;;;;;;-2.45;95.91;101663.80;1713563;84;20972;-60
2022/03/11 10:09:56;;;;;;;12.70;7.13;;;;;;;-2.52;97.47;101656.86;1713887;83;21084;-60
2022/03/11 10:12:29;;;;;;;14.23;7.57;;;;;;;-2.48;96.94;101655.72;1713409;84;22197;-60
2022/03/11 10:15:03;;;;;;;12.13;7.50;;;;;;;-2.39;97.66;101663.09;1714006;83;21453;-58
2022/03/11 10:17:51;;;;;;;12.20;7.60;;;;;;;-2.27;97.25;101660.52;1714018;83;20979;-59
2022/03/11 10:20:23;;;;;;;13.40;7.47;;;;;;;-1.89;96.12;101653.08;1713549;84;21067;-60
2022/03/11 10:22:50;;;;;;;13.33;7.23;;;;;;;-1.81;94.50;101650.34;1713891;84;20999;-60
2022/03/11 10:25:30;;;;;;;13.90;7.57;;;;;;;-1.96;95.14;101642.40;1713630;83;21027;-60
2022/03/11 10:28:09;;;;;;;13.83;6.80;;;;;;;-2.23;94.79;101652.60;1713185;83;21039;-60
2022/03/11 10:30:43;;;;;;;12.17;7.33;;;;;;;-2.45;94.02;101654.98;1708675;82;21048;-59
2022/03/11 10:33:13;;;;;;;13.65;7.37;;;;;;;-2.08;97.03;101646.72;1708462;83;21586;-59
2022/03/11 10:35:47;;;;;;;13.25;7.50;;;;;;;-1.17;94.94;101646.39;1708473;84;21070;-60
2022/03/11 10:38:19;;;;;;;11.97;7.33;;;;;;;-0.83;93.98;101639.55;1708676;83;21516;-59
2022/03/11 10:40:55;;;;;;;13.00;6.80;;;;;;;-1.29;92.69;101658.33;1708290;84;21082;-59
2022/03/11 10:43:26;;;;;;;13.78;7.17;;;;;;;-2.07;91.76;101648.82;1708219;84;21055;-61
2022/03/11 10:46:06;;;;;;;13.05;6.65;;;;;;;-2.20;94.55;101667.83;1685795;84;21087;-60
2022/03/11 10:48:48;;;;;;;11.60;7.25;;;;;;;-2.18;94.42;101660.31;1683231;84;21019;-60
2022/03/11 10:51:33;;;;;;;14.00;7.30;;;;;;;-2.07;95.07;101654.75;1686674;84;20996;-61
2022/03/11 10:54:04;;;;;;;11.22;6.92;;;;;;;-1.89;95.03;101660.65;1700054;84;21004;-60
2022/03/11 10:56:39;;;;;;;12.90;6.63;;;;;;;-2.20;94.92;101665.31;1706769;84;21020;-60
2022/03/11 10:59:16;;;;;;;10.15;6.45;;;;;;;-1.93;96.05;101656.75;1680223;85;21004;-59
2022/03/11 11:01:45;;;;;;;13.17;7.03;;;;;;;-2.22;97.09;101671.57;1681110;84;20992;-60
2022/03/11 11:04:16;;;;;;;14.43;7.30;;;;;;;-2.29;96.92;101663.79;1680407;85;21061;-59
2022/03/11 11:06:45;;;;;;;15.45;7.37;;;;;;;-1.98;98.13;101666.73;1682033;84;21032;-59
2022/03/11 11:09:17;;;;;;;13.58;7.37;;;;;;;-1.92;97.89;101668.16;1679833;85;21012;-59
2022/03/11 11:11:44;;;;;;;11.97;6.47;;;;;;;-1.65;96.90;101663.35;1680182;85;21087;-59
2022/03/11 11:14:12;;;;;;;12.93;6.70;;;;;;;-1.56;96.02;101672.43;1680131;85;21070;-60
2022/03/11 11:16:44;;;;;;;14.60;6.87;;;;;;;-2.06;96.49;101672.84;1680786;84;21031;-59